createdAt,value
2019-04-30T00:00:01.429Z,77.90
2019-04-30T00:02:39.637Z,78.20
2019-04-30T00:05:05.509Z,78.30
2019-04-30T00:07:35.744Z,78.40
2019-04-30T00:10:08.643Z,78.40
2019-04-30T00:12:39.484Z,78.40
2019-04-30T00:15:11.133Z,78.60
2019-04-30T00:17:38.905Z,78.60
2019-04-30T00:20:07.951Z,78.50
2019-04-30T00:22:39.338Z,78.40
2019-04-30T00:25:07.722Z,78.40
2019-04-30T00:27:36.258Z,78.50
2019-04-30T00:30:09.087Z,78.50
2019-04-30T00:32:43.426Z,78.50
2019-04-30T00:35:11.889Z,78.60
2019-04-30T00:37:40.025Z,78.60
2019-04-30T00:40:10.488Z,78.50
2019-04-30T00:42:39.178Z,78.50
2019-04-30T00:45:10.220Z,78.60
2019-04-30T00:47:39.575Z,78.70
2019-04-30T00:50:10.314Z,78.50
2019-04-30T00:52:38.752Z,78.50
2019-04-30T00:55:09.221Z,78.50
2019-04-30T00:57:43.736Z,78.50
2019-04-30T01:00:11.049Z,78.60
2019-04-30T01:02:41.189Z,78.60
2019-04-30T01:05:11.741Z,78.50
2019-04-30T01:07:47.997Z,78.50
2019-04-30T01:10:12.183Z,78.40
2019-04-30T01:12:46.862Z,78.60
2019-04-30T01:15:14.534Z,78.60
2019-04-30T01:17:45.411Z,78.80
2019-04-30T01:20:13.745Z,78.90
2019-04-30T01:22:42.431Z,79.00
2019-04-30T01:25:13.481Z,79.10
2019-04-30T01:27:45.735Z,79.10
2019-04-30T01:30:18.671Z,79.10
2019-04-30T01:32:45.073Z,79.10
2019-04-30T01:35:14.647Z,79.00
2019-04-30T01:37:43.327Z,79.00
2019-04-30T01:40:14.042Z,78.90
2019-04-30T01:42:48.071Z,78.80
2019-04-30T01:45:12.978Z,78.80
2019-04-30T01:47:41.396Z,78.70
2019-04-30T01:50:10.358Z,78.60
2019-04-30T01:52:54.218Z,78.70
2019-04-30T01:55:25.832Z,78.80
2019-04-30T01:57:59.189Z,78.80
2019-04-30T02:00:32.228Z,78.80
2019-04-30T02:03:01.655Z,78.60
2019-04-30T02:05:30.114Z,78.50
2019-04-30T02:07:58.660Z,78.50
2019-04-30T02:10:28.501Z,78.50
2019-04-30T02:12:59.083Z,78.40
2019-04-30T02:15:29.192Z,78.20
2019-04-30T02:17:58.728Z,78.10
2019-04-30T02:20:28.698Z,78.00
2019-04-30T02:22:58.658Z,77.60
2019-04-30T02:25:29.390Z,77.70
2019-04-30T02:27:59.020Z,77.70
2019-04-30T02:30:30.963Z,77.50
2019-04-30T02:33:00.439Z,77.40
2019-04-30T02:35:30.913Z,77.20
2019-04-30T02:38:10.733Z,77.40
2019-04-30T02:40:42.549Z,77.20
2019-04-30T02:43:11.546Z,76.90
2019-04-30T02:45:42.008Z,76.80
2019-04-30T02:48:11.776Z,76.90
2019-04-30T02:50:42.813Z,77.10
2019-04-30T02:53:31.072Z,76.90
2019-04-30T02:56:02.382Z,76.80
2019-04-30T02:58:29.945Z,76.90
2019-04-30T03:01:00.243Z,76.20
2019-04-30T03:03:29.919Z,76.40
2019-04-30T03:05:59.614Z,76.30
2019-04-30T03:08:29.804Z,76.40
2019-04-30T03:11:00.107Z,76.40
2019-04-30T03:13:30.276Z,76.10
2019-04-30T03:15:59.451Z,75.90
2019-04-30T03:18:45.630Z,75.90
2019-04-30T03:21:15.737Z,75.90
2019-04-30T03:23:44.481Z,76.20
2019-04-30T03:26:13.154Z,76.50
2019-04-30T03:28:42.932Z,76.40
2019-04-30T03:31:12.598Z,76.40
2019-04-30T03:33:42.664Z,75.80
2019-04-30T03:36:12.812Z,75.60
2019-04-30T03:38:42.777Z,75.40
2019-04-30T03:41:11.332Z,75.00
2019-04-30T03:43:40.159Z,75.10
2019-04-30T03:46:10.117Z,75.20
2019-04-30T03:48:39.622Z,75.40
2019-04-30T03:51:10.678Z,75.30
2019-04-30T03:53:42.401Z,75.50
2019-04-30T03:56:09.536Z,75.80
2019-04-30T03:58:39.484Z,75.70
2019-04-30T04:01:10.315Z,75.30
2019-04-30T04:04:00.394Z,74.70
2019-04-30T04:06:31.683Z,75.00
2019-04-30T04:09:05.335Z,74.90
2019-04-30T04:11:36.057Z,75.00
2019-04-30T04:14:04.553Z,75.40
2019-04-30T04:16:33.700Z,74.40
2019-04-30T04:19:02.918Z,74.10
2019-04-30T04:21:31.919Z,73.70
2019-04-30T04:24:00.356Z,71.90
2019-04-30T04:26:29.846Z,72.10
2019-04-30T04:28:59.400Z,72.00
2019-04-30T04:31:29.827Z,72.10
2019-04-30T04:34:00.162Z,72.30
2019-04-30T04:36:30.204Z,72.50
2019-04-30T04:39:00.131Z,72.00
2019-04-30T04:41:29.595Z,72.10
2019-04-30T04:44:00.134Z,72.30
2019-04-30T04:46:30.708Z,72.20
2019-04-30T04:48:59.621Z,72.10
2019-04-30T04:51:38.121Z,72.00
2019-04-30T04:54:00.106Z,72.30
2019-04-30T04:56:30.448Z,72.20
2019-04-30T04:59:00.216Z,72.30
2019-04-30T05:01:28.957Z,72.40
2019-04-30T05:03:59.139Z,72.40
2019-04-30T05:06:29.795Z,72.70
2019-04-30T05:08:59.167Z,72.80
2019-04-30T05:11:29.337Z,73.00
2019-04-30T05:13:59.227Z,72.80
2019-04-30T05:16:28.936Z,73.00
2019-04-30T05:18:58.645Z,73.20
2019-04-30T05:21:41.745Z,73.20
2019-04-30T05:24:00.369Z,72.80
2019-04-30T05:26:29.356Z,72.90
2019-04-30T05:28:59.438Z,72.90
2019-04-30T05:31:29.059Z,73.00
2019-04-30T05:33:58.686Z,73.00
2019-04-30T05:36:29.191Z,72.90
2019-04-30T05:38:58.764Z,72.90
2019-04-30T05:41:28.915Z,72.50
2019-04-30T05:43:59.172Z,72.50
2019-04-30T05:46:29.821Z,72.50
2019-04-30T05:48:59.407Z,72.40
2019-04-30T05:51:28.895Z,72.00
2019-04-30T05:53:59.259Z,72.00
2019-04-30T05:56:30.212Z,72.20
2019-04-30T05:58:59.337Z,72.10
2019-04-30T06:01:30.541Z,71.80
2019-04-30T06:04:00.234Z,70.90
2019-04-30T06:06:29.108Z,71.10
2019-04-30T06:09:10.602Z,71.30
2019-04-30T06:11:40.392Z,71.50
2019-04-30T06:14:28.665Z,71.20
2019-04-30T06:17:04.875Z,71.50
2019-04-30T06:19:33.925Z,71.50
2019-04-30T06:22:07.519Z,71.60
2019-04-30T06:24:33.132Z,71.20
2019-04-30T06:27:02.869Z,71.20
2019-04-30T06:29:32.298Z,71.20
2019-04-30T06:32:01.600Z,70.70
2019-04-30T06:34:30.801Z,69.80
2019-04-30T06:36:59.756Z,69.20
2019-04-30T06:39:28.860Z,69.70
2019-04-30T06:42:06.907Z,68.70
2019-04-30T06:44:37.374Z,68.60
2019-04-30T06:47:01.772Z,68.30
2019-04-30T06:49:31.131Z,67.90
2019-04-30T06:51:59.862Z,67.50
2019-04-30T06:54:28.748Z,67.70
2019-04-30T06:56:59.558Z,67.40
2019-04-30T06:59:27.583Z,67.70
2019-04-30T07:01:56.017Z,67.40
2019-04-30T07:04:26.079Z,67.20
2019-04-30T07:06:54.767Z,66.50
2019-04-30T07:09:26.695Z,67.10
2019-04-30T07:12:22.952Z,66.80
2019-04-30T07:14:42.374Z,66.30
2019-04-30T07:17:10.789Z,65.90
2019-04-30T07:19:53.209Z,64.50
2019-04-30T07:22:10.390Z,64.80
2019-04-30T07:24:39.442Z,65.10
2019-04-30T07:27:09.401Z,64.80
2019-04-30T07:29:39.326Z,64.40
2019-04-30T07:32:09.376Z,62.50
2019-04-30T07:34:40.132Z,62.40
2019-04-30T07:39:39.692Z,61.90
2019-04-30T07:42:09.229Z,62.00
2019-04-30T07:44:39.496Z,61.20
2019-04-30T07:47:09.725Z,60.80
2019-04-30T07:49:49.811Z,61.10
2019-04-30T07:52:11.265Z,60.90
2019-04-30T07:54:41.901Z,59.80
2019-04-30T07:57:10.752Z,59.80
2019-04-30T07:59:39.650Z,59.60
2019-04-30T08:02:13.866Z,56.80
2019-04-30T08:04:46.456Z,57.90
2019-04-30T08:07:15.074Z,58.00
2019-04-30T08:09:34.989Z,62.80
2019-04-30T08:09:43.801Z,56.20
2019-04-30T08:12:22.243Z,55.80
2019-04-30T08:14:42.832Z,53.60
2019-04-30T08:17:11.252Z,52.50
2019-04-30T08:19:41.072Z,54.50
2019-04-30T08:22:09.993Z,51.80
2019-04-30T08:24:39.091Z,50.20
2019-04-30T08:27:09.565Z,50.10
2019-04-30T08:29:39.510Z,50.80
2019-04-30T08:32:09.040Z,50.10
2019-04-30T08:34:39.355Z,50.60
2019-04-30T08:37:17.024Z,52.30
2019-04-30T08:39:39.709Z,50.80
2019-04-30T08:42:09.038Z,51.20
2019-04-30T08:44:39.605Z,51.20
2019-04-30T08:47:08.661Z,50.80
2019-04-30T08:49:37.359Z,49.80
2019-04-30T08:52:06.697Z,50.90
2019-04-30T08:54:35.405Z,49.30
2019-04-30T08:57:03.912Z,50.20
2019-04-30T08:59:32.771Z,49.50
2019-04-30T09:02:12.880Z,49.60
2019-04-30T09:04:31.648Z,48.90
2019-04-30T09:07:00.317Z,47.30
2019-04-30T09:09:29.581Z,48.10
2019-04-30T09:11:59.357Z,48.40
2019-04-30T09:14:29.651Z,46.70
2019-04-30T09:16:59.608Z,46.50
2019-04-30T09:19:29.883Z,47.30
2019-04-30T09:21:59.021Z,45.20
2019-04-30T09:24:30.726Z,43.60
2019-04-30T09:26:59.037Z,41.70
2019-04-30T09:29:29.275Z,40.80
2019-04-30T09:31:59.458Z,41.30
2019-04-30T09:34:29.329Z,40.90
2019-04-30T09:36:59.018Z,39.10
2019-04-30T09:39:29.343Z,38.70
2019-04-30T09:41:59.463Z,38.10
2019-04-30T09:44:30.504Z,36.90
2019-04-30T09:46:59.021Z,36.20
2019-04-30T09:49:29.291Z,35.20
2019-04-30T09:51:59.553Z,34.60
2019-04-30T09:54:28.896Z,34.20
2019-04-30T09:56:59.025Z,33.40
2019-04-30T09:59:29.181Z,34.30
2019-04-30T10:01:58.689Z,34.40
2019-04-30T10:04:29.873Z,31.90
2019-04-30T10:06:59.509Z,32.30
2019-04-30T10:09:29.384Z,34.50
2019-04-30T10:12:12.543Z,34.70
2019-04-30T10:14:41.146Z,34.10
2019-04-30T10:17:26.882Z,34.90
2019-04-30T10:19:55.685Z,33.80
2019-04-30T10:22:24.148Z,36.40
2019-04-30T10:24:52.831Z,36.80
2019-04-30T10:27:21.333Z,35.50
2019-04-30T10:29:50.189Z,35.10
2019-04-30T10:32:18.822Z,35.80
2019-04-30T10:34:47.854Z,36.70
2019-04-30T10:37:18.703Z,35.80
2019-04-30T10:39:48.775Z,36.30
2019-04-30T10:42:17.727Z,34.90
2019-04-30T10:44:46.227Z,34.90
2019-04-30T10:47:15.654Z,33.90
2019-04-30T10:49:44.078Z,34.50
2019-04-30T10:52:12.874Z,35.30
2019-04-30T10:54:41.708Z,33.50
2019-04-30T10:57:10.118Z,33.20
2019-04-30T10:59:38.538Z,34.00
2019-04-30T11:02:08.948Z,34.00
2019-04-30T11:04:37.304Z,34.20
2019-04-30T11:07:05.803Z,35.40
2019-04-30T11:09:36.009Z,35.70
2019-04-30T11:12:06.115Z,35.00
2019-04-30T11:14:34.687Z,35.50
2019-04-30T11:17:03.425Z,34.70
2019-04-30T11:19:32.471Z,33.80
2019-04-30T11:22:02.400Z,33.30
2019-04-30T11:24:37.927Z,33.10
2019-04-30T11:27:02.182Z,34.10
2019-04-30T11:29:31.285Z,33.90
2019-04-30T11:32:01.756Z,32.70
2019-04-30T11:34:30.380Z,34.20
2019-04-30T11:36:58.806Z,33.90
2019-04-30T11:39:29.657Z,34.00
2019-04-30T11:41:58.130Z,33.50
2019-04-30T11:44:31.331Z,34.00
2019-04-30T11:47:00.404Z,34.10
2019-04-30T11:49:29.046Z,32.50
2019-04-30T11:51:57.566Z,33.90
2019-04-30T11:54:26.072Z,31.20
2019-04-30T11:56:54.465Z,31.90
2019-04-30T11:59:23.392Z,33.00
2019-04-30T12:01:53.490Z,31.90
2019-04-30T12:04:22.199Z,32.90
2019-04-30T12:06:51.531Z,31.90
2019-04-30T12:09:22.436Z,32.30
2019-04-30T12:11:50.876Z,31.10
2019-04-30T12:14:20.269Z,32.70
2019-04-30T12:16:50.730Z,32.20
2019-04-30T12:19:19.004Z,31.70
2019-04-30T12:21:47.933Z,30.80
2019-04-30T12:24:16.940Z,30.80
2019-04-30T12:26:45.371Z,31.60
2019-04-30T12:29:13.793Z,32.90
2019-04-30T12:31:42.369Z,31.30
2019-04-30T12:34:11.215Z,30.90
2019-04-30T12:36:39.865Z,31.00
2019-04-30T12:39:08.665Z,32.10
2019-04-30T12:41:38.964Z,32.20
2019-04-30T12:44:07.288Z,33.20
2019-04-30T12:46:36.397Z,33.50
2019-04-30T12:49:06.814Z,32.20
2019-04-30T12:51:45.543Z,32.90
2019-04-30T12:54:14.432Z,32.20
2019-04-30T12:56:44.513Z,32.00
2019-04-30T12:59:12.939Z,31.60
2019-04-30T13:01:42.583Z,31.80
2019-04-30T13:04:11.272Z,32.00
2019-04-30T13:06:40.347Z,31.90
2019-04-30T13:09:11.120Z,31.70
2019-04-30T13:11:41.952Z,32.20
2019-04-30T13:14:12.181Z,31.10
2019-04-30T13:16:42.134Z,31.80
2019-04-30T13:19:10.608Z,32.30
2019-04-30T13:21:39.663Z,31.70
2019-04-30T13:24:08.275Z,34.10
2019-04-30T13:26:39.663Z,33.10
2019-04-30T13:29:09.979Z,32.50
2019-04-30T13:31:40.287Z,33.50
2019-04-30T13:34:13.238Z,32.10
2019-04-30T13:36:41.692Z,31.60
2019-04-30T13:39:11.840Z,31.70
2019-04-30T13:41:44.507Z,32.10
2019-04-30T13:44:14.628Z,32.20
2019-04-30T13:46:43.161Z,33.50
2019-04-30T13:49:11.839Z,32.90
2019-04-30T13:51:42.867Z,32.20
2019-04-30T13:54:10.569Z,33.80
2019-04-30T13:56:39.652Z,33.30
2019-04-30T13:59:08.303Z,33.50
2019-04-30T14:01:38.942Z,34.40
2019-04-30T14:04:11.284Z,33.80
2019-04-30T14:06:44.021Z,33.50
2019-04-30T14:09:14.510Z,33.40
2019-04-30T14:11:43.449Z,35.00
2019-04-30T14:14:12.084Z,33.00
2019-04-30T14:16:40.523Z,33.10
2019-04-30T14:19:09.204Z,34.80
2019-04-30T14:21:39.137Z,33.20
2019-04-30T14:24:09.457Z,34.40
2019-04-30T14:26:39.125Z,35.00
2019-04-30T14:29:08.676Z,33.70
2019-04-30T14:31:38.822Z,33.40
2019-04-30T14:34:07.502Z,34.60
2019-04-30T14:36:35.991Z,35.40
2019-04-30T14:39:14.582Z,35.80
2019-04-30T14:41:40.330Z,36.00
2019-04-30T14:44:19.229Z,33.80
2019-04-30T14:46:52.694Z,34.00
2019-04-30T14:49:40.114Z,35.00
2019-04-30T14:52:09.571Z,34.90
2019-04-30T14:54:39.916Z,33.70
2019-04-30T14:57:10.395Z,33.80
2019-04-30T14:59:43.297Z,34.50
2019-04-30T15:02:22.425Z,34.60
2019-04-30T15:04:51.054Z,35.40
2019-04-30T15:07:19.610Z,36.30
2019-04-30T15:09:48.397Z,36.20
2019-04-30T15:12:16.931Z,35.60
2019-04-30T15:14:45.787Z,35.10
2019-04-30T15:17:14.302Z,35.90
2019-04-30T15:19:42.964Z,35.90
2019-04-30T15:22:11.759Z,35.20
2019-04-30T15:24:40.689Z,34.90
2019-04-30T15:27:09.425Z,36.20
2019-04-30T15:29:39.200Z,35.70
2019-04-30T15:32:08.653Z,35.80
2019-04-30T15:34:40.884Z,36.30
2019-04-30T15:37:18.673Z,36.10
2019-04-30T15:39:40.873Z,36.20
2019-04-30T15:42:10.764Z,36.30
2019-04-30T15:44:42.667Z,37.10
2019-04-30T15:47:10.421Z,37.20
2019-04-30T15:49:39.245Z,37.10
2019-04-30T15:52:08.966Z,36.90
2019-04-30T15:54:39.272Z,37.70
2019-04-30T15:57:08.878Z,37.60
2019-04-30T15:59:40.517Z,36.90
2019-04-30T16:02:14.409Z,36.70
2019-04-30T16:04:59.748Z,37.40
2019-04-30T16:07:29.626Z,37.10
2019-04-30T16:10:00.174Z,37.30
2019-04-30T16:12:42.631Z,37.80
2019-04-30T16:15:13.377Z,37.00
2019-04-30T16:17:43.547Z,37.10
2019-04-30T16:20:12.636Z,37.20
2019-04-30T16:22:41.224Z,38.00
2019-04-30T16:25:10.107Z,37.60
2019-04-30T16:27:38.884Z,38.00
2019-04-30T16:30:09.540Z,38.40
2019-04-30T16:32:38.061Z,38.30
2019-04-30T16:35:08.950Z,38.50
2019-04-30T16:37:38.743Z,38.50
2019-04-30T16:40:08.336Z,39.20
2019-04-30T16:42:39.066Z,39.90
2019-04-30T16:45:09.303Z,39.00
2019-04-30T16:47:38.494Z,38.70
2019-04-30T16:50:09.281Z,39.10
2019-04-30T16:52:39.326Z,39.40
2019-04-30T16:55:08.501Z,39.00
2019-04-30T16:57:39.536Z,39.00
2019-04-30T17:00:09.394Z,39.10
2019-04-30T17:02:39.936Z,39.00
2019-04-30T17:05:11.851Z,40.00
2019-04-30T17:07:44.741Z,40.30
2019-04-30T17:10:15.590Z,40.60
2019-04-30T17:12:55.136Z,40.90
2019-04-30T17:15:37.341Z,40.00
2019-04-30T17:18:05.901Z,40.10
2019-04-30T17:20:34.317Z,40.30
2019-04-30T17:23:03.243Z,40.70
2019-04-30T17:25:31.632Z,41.00
2019-04-30T17:28:01.435Z,41.10
2019-04-30T17:30:30.124Z,41.30
2019-04-30T17:32:59.728Z,41.50
2019-04-30T17:35:28.960Z,42.00
2019-04-30T17:37:57.942Z,41.50
2019-04-30T17:40:26.349Z,41.60
2019-04-30T17:42:54.748Z,42.10
2019-04-30T17:45:24.015Z,42.10
2019-04-30T17:47:52.481Z,42.40
2019-04-30T17:50:22.361Z,42.70
2019-04-30T17:52:51.112Z,42.80
2019-04-30T17:55:19.616Z,42.90
2019-04-30T17:57:48.688Z,42.00
2019-04-30T18:00:21.636Z,42.80
2019-04-30T18:02:48.862Z,43.20
2019-04-30T18:05:19.317Z,43.20
2019-04-30T18:07:49.615Z,43.90
2019-04-30T18:10:19.928Z,42.50
2019-04-30T18:12:48.468Z,42.70
2019-04-30T18:15:18.788Z,42.70
2019-04-30T18:17:48.993Z,42.70
2019-04-30T18:20:19.301Z,42.60
2019-04-30T18:23:01.714Z,43.00
2019-04-30T18:25:47.328Z,43.30
2019-04-30T18:28:15.874Z,43.30
2019-04-30T18:30:44.779Z,43.80
2019-04-30T18:33:13.540Z,44.20
2019-04-30T18:35:42.568Z,44.80
2019-04-30T18:38:11.234Z,45.20
2019-04-30T18:40:39.917Z,44.80
2019-04-30T18:43:08.763Z,44.40
2019-04-30T18:45:39.370Z,44.20
2019-04-30T18:48:09.559Z,44.60
2019-04-30T18:50:37.796Z,44.80
2019-04-30T18:53:08.799Z,45.40
2019-04-30T18:55:37.250Z,46.30
2019-04-30T18:58:05.919Z,46.30
2019-04-30T19:00:39.569Z,46.60
2019-04-30T19:03:08.684Z,46.80
2019-04-30T19:05:39.288Z,47.30
2019-04-30T19:08:12.726Z,47.40
2019-04-30T19:10:43.036Z,47.40
2019-04-30T19:13:18.919Z,47.70
2019-04-30T19:16:18.571Z,48.00
2019-04-30T19:18:45.233Z,48.10
2019-04-30T19:21:13.747Z,48.10
2019-04-30T19:23:42.160Z,48.20
2019-04-30T19:26:11.568Z,48.50
2019-04-30T19:28:40.301Z,48.70
2019-04-30T19:31:11.727Z,49.00
2019-04-30T19:33:40.639Z,49.30
2019-04-30T19:36:09.801Z,49.20
2019-04-30T19:38:38.657Z,49.50
2019-04-30T19:41:10.618Z,49.80
2019-04-30T19:43:39.067Z,50.10
2019-04-30T19:46:09.036Z,50.20
2019-04-30T19:48:38.015Z,50.50
2019-04-30T19:51:08.684Z,50.70
2019-04-30T19:53:36.599Z,50.80
2019-04-30T19:56:05.078Z,51.30
2019-04-30T19:58:50.058Z,51.00
2019-04-30T20:01:03.938Z,51.30
2019-04-30T20:03:32.597Z,51.60
2019-04-30T20:06:01.047Z,51.90
2019-04-30T20:08:29.452Z,52.20
2019-04-30T20:10:59.347Z,52.30
2019-04-30T20:13:33.952Z,52.60
2019-04-30T20:15:59.379Z,52.50
2019-04-30T20:18:29.244Z,52.80
2019-04-30T20:21:01.204Z,52.90
2019-04-30T20:23:29.612Z,53.30
2019-04-30T20:25:58.022Z,53.70
2019-04-30T20:28:38.487Z,54.60
2019-04-30T20:30:57.714Z,55.00
2019-04-30T20:33:26.398Z,55.30
2019-04-30T20:35:54.949Z,55.60
2019-04-30T20:38:34.381Z,56.10
2019-04-30T20:41:04.645Z,56.00
2019-04-30T20:43:33.339Z,56.30
2019-04-30T20:46:02.002Z,56.30
2019-04-30T20:48:30.508Z,56.50
2019-04-30T20:51:01.100Z,56.60
2019-04-30T20:53:29.343Z,56.60
2019-04-30T20:55:59.387Z,56.80
2019-04-30T20:58:27.885Z,57.00
2019-04-30T21:01:04.109Z,57.10
2019-04-30T21:03:26.472Z,57.30
2019-04-30T21:05:54.887Z,57.80
2019-04-30T21:08:23.639Z,57.70
2019-04-30T21:10:52.099Z,58.20
2019-04-30T21:13:20.801Z,58.60
2019-04-30T21:15:49.713Z,58.80
2019-04-30T21:18:19.522Z,58.90
2019-04-30T21:20:49.681Z,59.10
2019-04-30T21:23:19.435Z,59.20
2019-04-30T21:25:48.788Z,59.40
2019-04-30T21:28:19.517Z,59.60
2019-04-30T21:30:48.519Z,59.70
2019-04-30T21:33:19.319Z,60.10
2019-04-30T21:35:50.780Z,60.20
2019-04-30T21:38:19.676Z,60.40
2019-04-30T21:40:49.222Z,60.50
2019-04-30T21:43:18.077Z,60.70
2019-04-30T21:45:46.477Z,61.00
2019-04-30T21:48:14.924Z,61.10
2019-04-30T21:50:43.629Z,61.20
2019-04-30T21:53:12.066Z,61.60
2019-04-30T21:55:40.500Z,61.80
2019-04-30T21:58:09.689Z,62.00
2019-04-30T22:00:43.431Z,61.80
2019-04-30T22:03:12.241Z,61.60
2019-04-30T22:05:40.693Z,61.60
2019-04-30T22:08:09.404Z,61.90
2019-04-30T22:10:38.122Z,61.60
2019-04-30T22:13:08.769Z,61.80
2019-04-30T22:15:36.675Z,62.00
2019-04-30T22:18:05.117Z,62.30
2019-04-30T22:20:33.543Z,62.30
2019-04-30T22:23:02.060Z,62.40
2019-04-30T22:25:30.498Z,62.30
2019-04-30T22:27:59.015Z,62.40
2019-04-30T22:30:27.501Z,62.40
2019-04-30T22:32:55.959Z,62.50
2019-04-30T22:35:26.311Z,62.70
2019-04-30T22:37:56.676Z,62.60
2019-04-30T22:40:25.164Z,62.90
2019-04-30T22:42:53.565Z,63.00
2019-04-30T22:45:29.648Z,62.80
2019-04-30T22:47:58.939Z,62.80
2019-04-30T22:50:28.448Z,62.80
2019-04-30T22:52:57.168Z,62.80
2019-04-30T22:55:25.565Z,62.70
2019-04-30T22:57:54.232Z,62.70
2019-04-30T23:00:24.451Z,62.90
2019-04-30T23:02:54.498Z,63.00
2019-04-30T23:05:23.166Z,63.10
2019-04-30T23:07:51.802Z,63.30
2019-04-30T23:10:20.213Z,63.20
2019-04-30T23:12:49.855Z,63.30
2019-04-30T23:15:19.730Z,63.40
2019-04-30T23:17:48.870Z,63.60
2019-04-30T23:20:17.660Z,63.40
2019-04-30T23:22:46.563Z,63.50
2019-04-30T23:25:15.109Z,63.70
2019-04-30T23:27:43.530Z,63.80
2019-04-30T23:30:13.076Z,63.80
2019-04-30T23:32:41.827Z,64.00
2019-04-30T23:35:10.922Z,64.10
2019-04-30T23:37:39.372Z,64.10
2019-04-30T23:40:27.586Z,64.10
2019-04-30T23:42:56.759Z,64.00
2019-04-30T23:45:25.518Z,64.10
2019-04-30T23:47:54.245Z,64.30
2019-04-30T23:50:22.700Z,64.40
2019-04-30T23:52:52.079Z,64.70
2019-04-30T23:55:20.482Z,64.70
2019-04-30T23:57:49.191Z,64.60
